sensor_id;sensor_type;location;lat;lon;timestamp;pressure;altitude;pressure_sealevel;temperature;humidity
64243;BME280;50573;51.512;5.386;2023-01-29T00:00:50;102808.16;;;-1.57;97.30
64243;BME280;50573;51.512;5.386;2023-01-29T00:10:59;102805.38;;;-1.52;99.42
64243;BME280;50573;51.512;5.386;2023-01-29T00:21:07;102802.75;;;-1.30;99.17
64243;BME280;50573;51.512;5.386;2023-01-29T00:31:12;102780.31;;;-1.20;98.78
64243;BME280;50573;51.512;5.386;2023-01-29T00:41:19;102790.06;;;-1.02;97.66
64243;BME280;50573;51.512;5.386;2023-01-29T00:51:39;102767.38;;;-1.05;97.24
64243;BME280;50573;51.512;5.386;2023-01-29T01:01:44;102747.69;;;-1.09;97.74
64243;BME280;50573;51.512;5.386;2023-01-29T01:12:05;102744.75;;;-0.99;97.02
64243;BME280;50573;51.512;5.386;2023-01-29T01:22:09;102762.81;;;-1.04;96.58
64243;BME280;50573;51.512;5.386;2023-01-29T01:32:12;102749.19;;;-1.16;97.86
64243;BME280;50573;51.512;5.386;2023-01-29T01:42:18;102751.59;;;-1.37;98.47
64243;BME280;50573;51.512;5.386;2023-01-29T01:52:21;102754.00;;;-1.49;99.28
64243;BME280;50573;51.512;5.386;2023-01-29T02:02:26;102756.81;;;-1.54;100.00
64243;BME280;50573;51.512;5.386;2023-01-29T02:12:47;102764.88;;;-1.46;99.09
64243;BME280;50573;51.512;5.386;2023-01-29T02:23:24;102761.97;;;-1.35;98.99
64243;BME280;50573;51.512;5.386;2023-01-29T02:33:43;102767.88;;;-1.25;98.67
64243;BME280;50573;51.512;5.386;2023-01-29T02:43:54;102767.19;;;-1.08;98.36
64243;BME280;50573;51.512;5.386;2023-01-29T02:54:03;102767.13;;;-0.95;98.11
64243;BME280;50573;51.512;5.386;2023-01-29T03:04:11;102752.25;;;-0.79;97.47
64243;BME280;50573;51.512;5.386;2023-01-29T03:14:21;102750.75;;;-0.63;96.93
64243;BME280;50573;51.512;5.386;2023-01-29T03:24:52;102758.06;;;-0.46;96.95
64243;BME280;50573;51.512;5.386;2023-01-29T03:35:19;102734.00;;;-0.38;96.06
64243;BME280;50573;51.512;5.386;2023-01-29T03:45:45;102740.50;;;-0.22;95.63
64243;BME280;50573;51.512;5.386;2023-01-29T03:55:58;102726.34;;;-0.14;95.67
64243;BME280;50573;51.512;5.386;2023-01-29T04:06:08;102727.94;;;-0.04;95.83
64243;BME280;50573;51.512;5.386;2023-01-29T04:16:25;102707.94;;;-0.07;95.59
64243;BME280;50573;51.512;5.386;2023-01-29T04:26:56;102695.97;;;-0.01;95.69
64243;BME280;50573;51.512;5.386;2023-01-29T04:37:11;102712.69;;;0.31;94.82
64243;BME280;50573;51.512;5.386;2023-01-29T04:47:20;102692.00;;;0.31;95.27
64243;BME280;50573;51.512;5.386;2023-01-29T04:57:32;102663.47;;;0.27;94.74
64243;BME280;50573;51.512;5.386;2023-01-29T05:07:37;102654.94;;;0.50;94.55
64243;BME280;50573;51.512;5.386;2023-01-29T05:17:42;102661.88;;;0.60;94.33
64243;BME280;50573;51.512;5.386;2023-01-29T05:27:46;102641.66;;;0.62;94.21
64243;BME280;50573;51.512;5.386;2023-01-29T05:38:07;102619.75;;;0.60;94.97
64243;BME280;50573;51.512;5.386;2023-01-29T05:48:10;102630.28;;;0.65;94.89
64243;BME280;50573;51.512;5.386;2023-01-29T05:58:14;102645.72;;;0.77;94.67
64243;BME280;50573;51.512;5.386;2023-01-29T06:08:20;102644.63;;;0.78;94.48
64243;BME280;50573;51.512;5.386;2023-01-29T06:18:24;102657.22;;;0.86;94.22
64243;BME280;50573;51.512;5.386;2023-01-29T06:28:27;102681.50;;;0.89;93.48
64243;BME280;50573;51.512;5.386;2023-01-29T06:38:32;102630.84;;;0.88;93.60
64243;BME280;50573;51.512;5.386;2023-01-29T06:48:35;102636.69;;;0.90;94.01
64243;BME280;50573;51.512;5.386;2023-01-29T06:58:40;102608.22;;;0.97;93.46
64243;BME280;50573;51.512;5.386;2023-01-29T07:08:44;102616.75;;;0.99;93.19
64243;BME280;50573;51.512;5.386;2023-01-29T07:18:49;102627.59;;;1.11;93.49
64243;BME280;50573;51.512;5.386;2023-01-29T07:28:52;102617.69;;;1.03;93.84
64243;BME280;50573;51.512;5.386;2023-01-29T07:38:56;102619.25;;;1.04;92.76
64243;BME280;50573;51.512;5.386;2023-01-29T07:48:59;102629.16;;;1.12;93.09
64243;BME280;50573;51.512;5.386;2023-01-29T07:59:04;102626.78;;;1.19;92.62
64243;BME280;50573;51.512;5.386;2023-01-29T08:09:07;102619.53;;;1.20;92.90
64243;BME280;50573;51.512;5.386;2023-01-29T08:19:12;102608.91;;;1.23;92.52
64243;BME280;50573;51.512;5.386;2023-01-29T08:29:15;102598.13;;;1.32;92.38
64243;BME280;50573;51.512;5.386;2023-01-29T08:39:19;102599.09;;;1.27;92.18
64243;BME280;50573;51.512;5.386;2023-01-29T08:49:22;102572.84;;;1.33;91.55
64243;BME280;50573;51.512;5.386;2023-01-29T08:59:27;102581.69;;;1.33;91.29
64243;BME280;50573;51.512;5.386;2023-01-29T09:09:30;102581.25;;;1.52;91.31
64243;BME280;50573;51.512;5.386;2023-01-29T09:19:35;102571.69;;;1.63;90.69
64243;BME280;50573;51.512;5.386;2023-01-29T09:29:37;102571.72;;;1.75;89.96
64243;BME280;50573;51.512;5.386;2023-01-29T09:39:42;102571.31;;;1.85;89.27
64243;BME280;50573;51.512;5.386;2023-01-29T09:49:47;102558.28;;;1.96;88.60
64243;BME280;50573;51.512;5.386;2023-01-29T09:59:53;102561.78;;;2.08;87.12
64243;BME280;50573;51.512;5.386;2023-01-29T10:10:20;102574.56;;;2.11;86.93
64243;BME280;50573;51.512;5.386;2023-01-29T10:20:51;102571.06;;;2.31;85.89
64243;BME280;50573;51.512;5.386;2023-01-29T10:30:59;102571.19;;;2.47;85.25
64243;BME280;50573;51.512;5.386;2023-01-29T10:41:21;102550.59;;;2.51;84.11
64243;BME280;50573;51.512;5.386;2023-01-29T10:51:49;102544.44;;;2.74;83.06
64243;BME280;50573;51.512;5.386;2023-01-29T11:01:58;102546.56;;;2.81;82.62
64243;BME280;50573;51.512;5.386;2023-01-29T11:12:09;102516.91;;;3.17;81.58
64243;BME280;50573;51.512;5.386;2023-01-29T11:22:18;102489.88;;;3.14;80.51
64243;BME280;50573;51.512;5.386;2023-01-29T11:32:25;102461.47;;;3.16;80.60
64243;BME280;50573;51.512;5.386;2023-01-29T11:42:31;102448.31;;;3.39;80.18
64243;BME280;50573;51.512;5.386;2023-01-29T11:52:38;102425.88;;;3.35;80.45
64243;BME280;50573;51.512;5.386;2023-01-29T12:02:46;102405.38;;;3.46;80.00
64243;BME280;50573;51.512;5.386;2023-01-29T12:12:50;102376.56;;;3.62;78.76
64243;BME280;50573;51.512;5.386;2023-01-29T12:23:00;102363.81;;;3.74;78.69
64243;BME280;50573;51.512;5.386;2023-01-29T12:33:13;102363.03;;;3.74;78.54
64243;BME280;50573;51.512;5.386;2023-01-29T12:43:23;102343.91;;;3.79;79.05
64243;BME280;50573;51.512;5.386;2023-01-29T12:53:32;102329.97;;;3.77;79.27
64243;BME280;50573;51.512;5.386;2023-01-29T13:03:45;102310.53;;;3.68;80.49
64243;BME280;50573;51.512;5.386;2023-01-29T13:13:54;102296.00;;;3.57;81.49
64243;BME280;50573;51.512;5.386;2023-01-29T13:24:02;102293.66;;;3.71;82.14
64243;BME280;50573;51.512;5.386;2023-01-29T13:34:11;102273.66;;;3.72;81.68
64243;BME280;50573;51.512;5.386;2023-01-29T13:44:20;102257.41;;;3.68;81.90
64243;BME280;50573;51.512;5.386;2023-01-29T13:54:26;102248.34;;;3.76;82.25
64243;BME280;50573;51.512;5.386;2023-01-29T14:04:31;102250.69;;;3.78;82.03
64243;BME280;50573;51.512;5.386;2023-01-29T14:25:28;102225.47;;;3.86;82.89
64243;BME280;50573;51.512;5.386;2023-01-29T14:35:33;102222.72;;;3.82;82.93
64243;BME280;50573;51.512;5.386;2023-01-29T14:45:39;102215.81;;;3.85;82.48
64243;BME280;50573;51.512;5.386;2023-01-29T14:55:44;102202.88;;;3.90;82.54
64243;BME280;50573;51.512;5.386;2023-01-29T15:05:52;102197.97;;;3.96;82.36
64243;BME280;50573;51.512;5.386;2023-01-29T15:16:02;102186.34;;;3.92;82.27
64243;BME280;50573;51.512;5.386;2023-01-29T15:26:11;102165.84;;;3.87;81.76
64243;BME280;50573;51.512;5.386;2023-01-29T15:36:18;102162.47;;;3.94;82.30
64243;BME280;50573;51.512;5.386;2023-01-29T15:46:25;102150.50;;;3.91;82.43
64243;BME280;50573;51.512;5.386;2023-01-29T15:56:36;102130.22;;;3.78;82.31
64243;BME280;50573;51.512;5.386;2023-01-29T16:06:42;102122.47;;;3.77;82.47
64243;BME280;50573;51.512;5.386;2023-01-29T16:16:45;102125.97;;;3.77;82.83
64243;BME280;50573;51.512;5.386;2023-01-29T16:26:56;102109.28;;;3.72;82.44
64243;BME280;50573;51.512;5.386;2023-01-29T16:37:03;102106.59;;;3.72;82.57
64243;BME280;50573;51.512;5.386;2023-01-29T16:47:12;102097.16;;;3.62;82.40
64243;BME280;50573;51.512;5.386;2023-01-29T16:57:19;102091.31;;;3.60;82.08
64243;BME280;50573;51.512;5.386;2023-01-29T17:07:25;102096.44;;;3.65;82.22
64243;BME280;50573;51.512;5.386;2023-01-29T17:17:30;102083.41;;;3.67;82.77
64243;BME280;50573;51.512;5.386;2023-01-29T17:27:39;102070.28;;;3.66;82.51
64243;BME280;50573;51.512;5.386;2023-01-29T17:37:42;102078.84;;;3.71;81.99
64243;BME280;50573;51.512;5.386;2023-01-29T17:47:47;102073.41;;;3.68;82.64
64243;BME280;50573;51.512;5.386;2023-01-29T17:57:50;102054.97;;;3.70;82.95
64243;BME280;50573;51.512;5.386;2023-01-29T18:07:55;102044.63;;;3.72;83.83
64243;BME280;50573;51.512;5.386;2023-01-29T18:17:58;102052.41;;;3.58;86.49
64243;BME280;50573;51.512;5.386;2023-01-29T18:28:04;102040.16;;;3.60;88.00
64243;BME280;50573;51.512;5.386;2023-01-29T18:38:07;102026.31;;;3.43;89.74
64243;BME280;50573;51.512;5.386;2023-01-29T18:48:12;101999.03;;;3.44;90.73
64243;BME280;50573;51.512;5.386;2023-01-29T18:58:15;101974.16;;;3.51;91.10
64243;BME280;50573;51.512;5.386;2023-01-29T19:08:38;101984.44;;;3.45;91.72
64243;BME280;50573;51.512;5.386;2023-01-29T19:18:42;101950.97;;;3.46;92.03
64243;BME280;50573;51.512;5.386;2023-01-29T19:28:46;101924.59;;;3.55;92.08
64243;BME280;50573;51.512;5.386;2023-01-29T19:38:50;101923.13;;;3.58;92.33
64243;BME280;50573;51.512;5.386;2023-01-29T19:48:54;101872.38;;;3.60;92.30
64243;BME280;50573;51.512;5.386;2023-01-29T19:58:59;101862.47;;;3.67;92.48
64243;BME280;50573;51.512;5.386;2023-01-29T20:09:04;101856.31;;;3.67;93.38
64243;BME280;50573;51.512;5.386;2023-01-29T20:19:07;101871.88;;;3.77;94.25
64243;BME280;50573;51.512;5.386;2023-01-29T20:29:17;101867.34;;;3.81;93.82
64243;BME280;50573;51.512;5.386;2023-01-29T20:39:20;101878.13;;;3.81;94.26
64243;BME280;50573;51.512;5.386;2023-01-29T20:49:24;101852.84;;;3.89;95.13
64243;BME280;50573;51.512;5.386;2023-01-29T20:59:29;101837.56;;;3.96;95.37
64243;BME280;50573;51.512;5.386;2023-01-29T21:09:33;101842.78;;;4.12;95.73
64243;BME280;50573;51.512;5.386;2023-01-29T21:19:37;101866.31;;;4.15;96.64
64243;BME280;50573;51.512;5.386;2023-01-29T21:29:41;101855.53;;;4.15;97.41
64243;BME280;50573;51.512;5.386;2023-01-29T21:39:44;101839.47;;;4.22;97.83
64243;BME280;50573;51.512;5.386;2023-01-29T21:49:49;101840.41;;;4.33;98.27
64243;BME280;50573;51.512;5.386;2023-01-29T21:59:52;101838.19;;;4.39;98.53
64243;BME280;50573;51.512;5.386;2023-01-29T22:09:57;101830.88;;;4.43;99.34
64243;BME280;50573;51.512;5.386;2023-01-29T22:20:00;101793.66;;;4.52;99.43
64243;BME280;50573;51.512;5.386;2023-01-29T22:30:06;101730.84;;;4.55;100.00
64243;BME280;50573;51.512;5.386;2023-01-29T22:40:11;101732.81;;;4.58;100.00
64243;BME280;50573;51.512;5.386;2023-01-29T22:50:15;101729.75;;;4.59;100.00
64243;BME280;50573;51.512;5.386;2023-01-29T23:00:20;101718.22;;;4.62;100.00
64243;BME280;50573;51.512;5.386;2023-01-29T23:10:24;101721.00;;;4.69;100.00
64243;BME280;50573;51.512;5.386;2023-01-29T23:20:27;101656.69;;;4.78;100.00
64243;BME280;50573;51.512;5.386;2023-01-29T23:30:32;101695.31;;;4.82;100.00
64243;BME280;50573;51.512;5.386;2023-01-29T23:40:35;101669.25;;;5.00;100.00
64243;BME280;50573;51.512;5.386;2023-01-29T23:50:39;101646.22;;;5.13;100.00
